Perseverance — WDD5594 — position and weather

sailwx.info

Track history (hours):
 
Tides and Currents Weather Stations Pressure Air Temp Water Temp Dewpoint Dewpoint Depression Visibility Wind Speed Wind Dir Waves Ship Positions

Perseverance

Owner: Cooper, Mark E, Toledo, OR. More information available from US FCC via Universal Licensing System and Coast Guard Vessel Documentation Center.

Last reported at 2015-Aug-01 14:33 UTC. Time now 2015-Aug-04 21:55 UTC.
Position N 44°37' W 124°08'.

MMSI: 367618000.

Date/timePositionNaut miles runAvg speedWind from/ knotsBaromVisibWave heightAir tempDewpointWater temp
2015-Aug-01 14:33N 44°37' W 124°08'1010.2
2015-Aug-01 13:34N 44°42' W 124°21'10 9.7
2015-Aug-01 12:32N 44°47' W 124°33'9 8.9
2015-Aug-01 11:30N 44°51' W 124°45'8 8.5
2015-Aug-01 10:33N 44°55' W 124°55'8 8.0
2015-Aug-01 09:34N 44°59' W 125°05'8 8.1
2015-Aug-01 08:33N 45°03' W 125°15'9 8.8
2015-Aug-01 07:33N 45°07' W 125°26'9 9.2
2015-Aug-01 06:33N 45°11' W 125°37'9 9.4
2015-Aug-01 05:33N 45°15' W 125°49'9 9.3
2015-Aug-01 04:34N 45°20' W 126°01'9 9.3
2015-Aug-01 03:33N 45°24' W 126°12'9 9.2
2015-Aug-01 02:33N 45°28' W 126°24'11 9.4
2015-Aug-01 01:23N 45°33' W 126°38'  
Track history (hours):
 
Tides and Currents Weather Stations Pressure Air Temp Water Temp Dewpoint Dewpoint Depression Visibility Wind Speed Wind Dir Waves Ship Positions

Perseverance

Owner: Cooper, Mark E, Toledo, OR. More information available from US FCC via Universal Licensing System and Coast Guard Vessel Documentation Center.

Last reported at 2015-Aug-01 14:33 UTC. Time now 2015-Aug-04 21:55 UTC.
Position N 44°37' W 124°08'.

MMSI: 367618000.

Date/timePositionNaut miles runAvg speedWind from/ knotsBaromVisibWave heightAir tempDewpointWater temp
2015-Aug-01 14:33N 44°37' W 124°08'1010.2
2015-Aug-01 13:34N 44°42' W 124°21'10 9.7
2015-Aug-01 12:32N 44°47' W 124°33'9 8.9
2015-Aug-01 11:30N 44°51' W 124°45'8 8.5
2015-Aug-01 10:33N 44°55' W 124°55'8 8.0
2015-Aug-01 09:34N 44°59' W 125°05'8 8.1
2015-Aug-01 08:33N 45°03' W 125°15'9 8.8
2015-Aug-01 07:33N 45°07' W 125°26'9 9.2
2015-Aug-01 06:33N 45°11' W 125°37'9 9.4
2015-Aug-01 05:33N 45°15' W 125°49'9 9.3
2015-Aug-01 04:34N 45°20' W 126°01'9 9.3
2015-Aug-01 03:33N 45°24' W 126°12'9 9.2
2015-Aug-01 02:33N 45°28' W 126°24'11 9.4
2015-Aug-01 01:23N 45°33' W 126°38'  

Dump ship's entire track history